createdAt,value
2018-07-25T00:00:16.862Z,99.99
2018-07-25T00:02:09.696Z,99.99
2018-07-25T00:03:09.605Z,99.99
2018-07-25T00:05:02.992Z,99.99
2018-07-25T00:06:02.891Z,99.99
2018-07-25T00:07:56.254Z,99.99
2018-07-25T00:08:55.631Z,99.99
2018-07-25T00:10:48.489Z,99.99
2018-07-25T00:11:48.380Z,99.99
2018-07-25T00:13:41.207Z,99.99
2018-07-25T00:14:41.129Z,99.99
2018-07-25T00:16:33.972Z,99.99
2018-07-25T00:17:33.879Z,99.99
2018-07-25T00:19:26.704Z,99.99
2018-07-25T00:20:26.619Z,99.99
2018-07-25T00:22:19.489Z,99.99
2018-07-25T00:23:19.366Z,99.99
2018-07-25T00:25:12.205Z,99.99
2018-07-25T00:26:12.111Z,99.99
2018-07-25T00:28:04.961Z,99.99
2018-07-25T00:29:04.912Z,99.99
2018-07-25T00:30:58.676Z,99.99
2018-07-25T00:31:58.875Z,99.99
2018-07-25T00:33:51.393Z,99.99
2018-07-25T00:34:51.322Z,99.99
2018-07-25T00:36:44.147Z,99.99
2018-07-25T00:37:44.030Z,99.99
2018-07-25T00:39:36.876Z,99.99
2018-07-25T00:40:36.785Z,99.99
2018-07-25T00:42:29.678Z,99.99
2018-07-25T00:43:29.536Z,99.99
2018-07-25T00:45:22.388Z,99.99
2018-07-25T00:46:22.290Z,99.99
2018-07-25T00:48:15.135Z,99.99
2018-07-25T00:49:15.039Z,99.99
2018-07-25T00:51:08.231Z,99.99
2018-07-25T00:52:07.787Z,99.99
2018-07-25T00:54:00.691Z,99.99
2018-07-25T00:55:00.546Z,99.99
2018-07-25T00:56:53.381Z,99.99
2018-07-25T00:57:53.290Z,99.99
2018-07-25T00:59:46.132Z,99.99
2018-07-25T01:00:46.035Z,99.99
2018-07-25T01:02:38.913Z,99.99
2018-07-25T01:03:38.785Z,99.99
2018-07-25T01:05:31.620Z,99.99
2018-07-25T01:06:31.531Z,99.99
2018-07-25T01:08:24.390Z,99.99
2018-07-25T01:09:24.281Z,99.99
2018-07-25T01:11:17.128Z,99.99
2018-07-25T01:12:17.077Z,99.99
2018-07-25T01:14:09.890Z,99.99
2018-07-25T01:15:09.784Z,99.99
2018-07-25T01:17:02.623Z,99.99
2018-07-25T01:18:02.531Z,99.99
2018-07-25T01:19:55.893Z,99.99
2018-07-25T01:20:55.281Z,99.99
2018-07-25T01:22:48.143Z,99.99
2018-07-25T01:23:48.031Z,99.99
2018-07-25T01:25:40.882Z,99.99
2018-07-25T01:26:40.795Z,99.99
2018-07-25T01:28:33.665Z,99.99
2018-07-25T01:29:33.544Z,99.99
2018-07-25T01:31:26.373Z,99.99
2018-07-25T01:32:26.293Z,99.99
2018-07-25T01:34:19.135Z,99.99
2018-07-25T01:35:19.021Z,99.99
2018-07-25T01:37:11.891Z,99.99
2018-07-25T01:38:11.777Z,99.99
2018-07-25T01:40:04.653Z,99.99
2018-07-25T01:41:04.522Z,99.99
2018-07-25T01:42:57.454Z,99.99
2018-07-25T01:43:57.284Z,99.99
2018-07-25T01:45:50.145Z,99.99
2018-07-25T01:46:50.029Z,99.99
2018-07-25T01:48:42.887Z,99.99
2018-07-25T01:49:42.778Z,99.99
2018-07-25T01:51:35.637Z,99.99
2018-07-25T01:52:35.541Z,99.99
2018-07-25T01:54:28.416Z,99.99
2018-07-25T01:55:28.297Z,99.99
2018-07-25T01:57:21.144Z,99.99
2018-07-25T01:58:21.038Z,99.99
2018-07-25T02:00:13.882Z,99.99
2018-07-25T02:01:13.783Z,99.99
2018-07-25T02:03:06.628Z,99.99
2018-07-25T02:04:06.540Z,99.99
2018-07-25T02:05:59.406Z,99.99
2018-07-25T02:06:59.280Z,99.99
2018-07-25T02:08:52.117Z,99.99
2018-07-25T02:09:52.083Z,99.99
2018-07-25T02:11:44.880Z,99.99
2018-07-25T02:12:44.766Z,99.99
2018-07-25T02:14:37.613Z,99.99
2018-07-25T02:15:37.542Z,99.99
2018-07-25T02:17:30.369Z,99.99
2018-07-25T02:18:30.269Z,99.99
2018-07-25T02:20:23.123Z,99.99
2018-07-25T02:21:23.032Z,99.99
2018-07-25T02:23:15.873Z,99.99
2018-07-25T02:24:15.769Z,99.99
2018-07-25T02:26:08.620Z,99.99
2018-07-25T02:27:08.513Z,99.99
2018-07-25T02:29:01.357Z,99.99
2018-07-25T02:30:01.309Z,99.99
2018-07-25T02:31:54.126Z,99.99
2018-07-25T02:32:54.037Z,99.99
2018-07-25T02:34:46.910Z,99.99
2018-07-25T02:35:46.776Z,99.99
2018-07-25T02:37:39.636Z,99.99
2018-07-25T02:38:39.528Z,99.99
2018-07-25T02:40:32.785Z,99.99
2018-07-25T02:41:32.682Z,99.99
2018-07-25T02:43:25.550Z,99.99
2018-07-25T02:44:25.484Z,99.99
2018-07-25T02:46:18.265Z,99.99
2018-07-25T02:47:18.192Z,99.99
2018-07-25T02:49:11.142Z,99.99
2018-07-25T02:50:10.927Z,99.99
2018-07-25T02:52:03.787Z,99.99
2018-07-25T02:53:04.281Z,99.99
2018-07-25T02:54:57.061Z,99.99
2018-07-25T02:55:56.427Z,99.99
2018-07-25T02:57:49.274Z,99.99
2018-07-25T02:58:49.185Z,99.99
2018-07-25T03:00:42.029Z,99.99
2018-07-25T03:01:41.933Z,99.99
2018-07-25T03:03:34.786Z,99.99
2018-07-25T03:04:34.685Z,99.99
2018-07-25T03:06:27.517Z,99.99
2018-07-25T03:07:27.431Z,99.99
2018-07-25T03:09:20.275Z,99.99
2018-07-25T03:10:20.167Z,99.99
2018-07-25T03:12:13.018Z,99.99
2018-07-25T03:13:12.926Z,99.99
2018-07-25T03:15:05.786Z,99.99
2018-07-25T03:16:05.673Z,99.99
2018-07-25T03:17:58.531Z,99.99
2018-07-25T03:18:58.428Z,99.99
2018-07-25T03:20:51.277Z,99.99
2018-07-25T03:21:51.165Z,99.99
2018-07-25T03:23:44.034Z,99.99
2018-07-25T03:24:43.926Z,99.99
2018-07-25T03:26:36.775Z,99.99
2018-07-25T03:27:36.677Z,99.99
2018-07-25T03:29:29.522Z,99.99
2018-07-25T03:30:29.446Z,99.99
2018-07-25T03:32:22.270Z,99.99
2018-07-25T03:33:22.160Z,99.99
2018-07-25T03:35:15.030Z,99.99
2018-07-25T03:36:14.922Z,99.99
2018-07-25T03:38:07.786Z,99.99
2018-07-25T03:39:07.695Z,99.99
2018-07-25T03:41:01.037Z,99.99
2018-07-25T03:42:00.932Z,99.99
2018-07-25T03:43:53.922Z,99.99
2018-07-25T03:44:53.786Z,99.99
2018-07-25T03:46:46.554Z,99.99
2018-07-25T03:47:46.418Z,99.99
2018-07-25T03:49:39.798Z,99.99
2018-07-25T03:50:39.181Z,99.99
2018-07-25T03:52:32.481Z,99.99
2018-07-25T03:53:32.351Z,99.99
2018-07-25T03:55:25.191Z,99.99
2018-07-25T03:56:25.111Z,99.99
2018-07-25T03:58:17.929Z,99.99
2018-07-25T03:59:17.823Z,99.99
2018-07-25T04:01:10.688Z,99.99
2018-07-25T04:02:10.594Z,99.99
2018-07-25T04:04:03.435Z,99.99
2018-07-25T04:05:03.331Z,99.99
2018-07-25T04:06:56.194Z,99.99
2018-07-25T04:07:56.073Z,99.99
2018-07-25T04:09:48.919Z,99.99
2018-07-25T04:10:48.830Z,99.99
2018-07-25T04:12:41.686Z,99.99
2018-07-25T04:13:41.589Z,99.99
2018-07-25T04:15:34.834Z,99.99
2018-07-25T04:16:34.742Z,99.99
2018-07-25T04:18:27.591Z,99.99
2018-07-25T04:19:27.499Z,99.99
2018-07-25T04:21:20.357Z,99.99
2018-07-25T04:22:20.360Z,99.99
2018-07-25T04:24:13.108Z,99.99
2018-07-25T04:25:12.996Z,99.99
2018-07-25T04:27:05.833Z,99.99
2018-07-25T04:28:05.777Z,99.99
2018-07-25T04:29:58.577Z,99.99
2018-07-25T04:30:58.495Z,99.99
2018-07-25T04:32:51.338Z,99.99
2018-07-25T04:33:51.237Z,99.99
2018-07-25T04:35:44.077Z,99.99
2018-07-25T04:36:43.988Z,99.99
2018-07-25T04:38:36.842Z,99.99
2018-07-25T04:39:36.738Z,99.99
2018-07-25T04:41:29.520Z,99.99
2018-07-25T04:42:29.410Z,99.99
2018-07-25T04:44:22.252Z,99.99
2018-07-25T04:45:22.140Z,99.99
2018-07-25T04:47:14.973Z,99.99
2018-07-25T04:48:14.882Z,99.99
2018-07-25T04:50:07.737Z,99.99
2018-07-25T04:51:07.647Z,99.99
2018-07-25T04:53:00.917Z,99.99
2018-07-25T04:54:00.795Z,99.99
2018-07-25T04:55:53.636Z,99.99
2018-07-25T04:56:53.551Z,99.99
2018-07-25T04:58:46.805Z,99.99
2018-07-25T04:59:46.700Z,99.99
2018-07-25T05:01:39.554Z,99.99
2018-07-25T05:02:39.456Z,99.99
2018-07-25T05:04:32.304Z,99.99
2018-07-25T05:05:32.207Z,99.99
2018-07-25T05:07:25.054Z,99.99
2018-07-25T05:08:24.961Z,99.99
2018-07-25T05:10:17.833Z,99.99
2018-07-25T05:11:17.701Z,99.99
2018-07-25T05:13:10.596Z,99.99
2018-07-25T05:14:10.457Z,99.99
2018-07-25T05:16:03.309Z,99.99
2018-07-25T05:17:03.207Z,99.99
2018-07-25T05:18:56.065Z,99.99
2018-07-25T05:19:55.949Z,99.99
2018-07-25T05:21:48.841Z,99.99
2018-07-25T05:22:48.720Z,99.99
2018-07-25T05:24:41.625Z,99.99
2018-07-25T05:25:41.449Z,99.99
2018-07-25T05:27:34.324Z,99.99
2018-07-25T05:28:34.205Z,99.99
2018-07-25T05:30:27.079Z,99.99
2018-07-25T05:31:26.968Z,99.99
2018-07-25T05:33:19.819Z,99.99
2018-07-25T05:34:19.692Z,99.99
2018-07-25T05:36:12.541Z,99.99
2018-07-25T05:37:12.448Z,99.99
2018-07-25T05:39:05.710Z,99.99
2018-07-25T05:40:05.612Z,99.99
2018-07-25T05:41:58.454Z,99.99
2018-07-25T05:42:58.373Z,99.99
2018-07-25T05:44:51.229Z,99.99
2018-07-25T05:45:51.109Z,99.99
2018-07-25T05:47:43.951Z,99.99
2018-07-25T05:48:43.866Z,99.99
2018-07-25T05:50:36.704Z,99.99
2018-07-25T05:51:36.614Z,99.99
2018-07-25T05:53:30.368Z,99.99
2018-07-25T05:54:30.281Z,99.99
2018-07-25T05:56:23.129Z,99.99
2018-07-25T05:57:23.032Z,99.99
2018-07-25T05:59:15.878Z,99.99
2018-07-25T06:00:15.776Z,99.99
2018-07-25T06:02:08.656Z,99.99
2018-07-25T06:03:08.565Z,99.99
2018-07-25T06:05:01.364Z,99.99
2018-07-25T06:06:01.297Z,99.99
2018-07-25T06:07:54.141Z,99.99
2018-07-25T06:08:54.047Z,99.99
2018-07-25T06:10:46.883Z,99.99
2018-07-25T06:11:46.802Z,99.99
2018-07-25T06:13:39.607Z,99.99
2018-07-25T06:14:39.536Z,99.99
2018-07-25T06:16:32.400Z,99.99
2018-07-25T06:17:32.276Z,99.99
2018-07-25T06:19:25.182Z,99.99
2018-07-25T06:20:25.067Z,99.99
2018-07-25T06:22:17.873Z,99.99
2018-07-25T06:23:17.790Z,99.99
2018-07-25T06:25:10.625Z,98.88
2018-07-25T06:26:10.576Z,99.94
2018-07-25T06:28:03.421Z,99.26
2018-07-25T06:29:03.277Z,99.74
2018-07-25T06:30:56.128Z,99.02
2018-07-25T06:31:56.029Z,98.83
2018-07-25T06:33:48.891Z,99.41
2018-07-25T06:34:48.833Z,97.03
2018-07-25T06:36:42.138Z,93.45
2018-07-25T06:37:42.035Z,93.65
2018-07-25T06:39:34.888Z,89.53
2018-07-25T06:40:34.783Z,88.27
2018-07-25T06:42:28.154Z,86.37
2018-07-25T06:43:28.111Z,84.72
2018-07-25T06:45:20.896Z,77.49
2018-07-25T06:46:20.793Z,76.97
2018-07-25T06:48:13.650Z,76.14
2018-07-25T06:49:13.542Z,75.84
2018-07-25T06:51:06.389Z,77.34
2018-07-25T06:52:06.293Z,76.56
2018-07-25T06:53:59.146Z,75.98
2018-07-25T06:54:59.057Z,76.85
2018-07-25T06:56:51.881Z,76.50
2018-07-25T06:57:51.795Z,75.53
2018-07-25T06:59:44.690Z,73.49
2018-07-25T07:00:44.546Z,73.78
2018-07-25T07:02:37.396Z,72.42
2018-07-25T07:03:37.296Z,72.52
2018-07-25T07:05:30.144Z,71.97
2018-07-25T07:06:30.051Z,70.42
2018-07-25T07:08:22.890Z,71.00
2018-07-25T07:09:22.791Z,71.13
2018-07-25T07:11:15.639Z,69.96
2018-07-25T07:12:15.635Z,69.58
2018-07-25T07:14:08.408Z,70.75
2018-07-25T07:15:08.327Z,68.80
2018-07-25T07:17:01.130Z,68.70
2018-07-25T07:18:01.065Z,68.15
2018-07-25T07:19:53.900Z,67.57
2018-07-25T07:20:53.810Z,68.54
2018-07-25T07:22:46.634Z,65.72
2018-07-25T07:23:46.545Z,65.92
2018-07-25T07:25:39.443Z,65.82
2018-07-25T07:26:39.334Z,64.95
2018-07-25T07:28:32.255Z,65.08
2018-07-25T07:29:32.143Z,64.00
2018-07-25T07:31:25.038Z,64.20
2018-07-25T07:32:24.954Z,64.98
2018-07-25T07:34:17.763Z,65.75
2018-07-25T07:35:17.647Z,65.85
2018-07-25T07:37:11.104Z,62.67
2018-07-25T07:38:10.442Z,64.04
2018-07-25T07:40:03.273Z,62.57
2018-07-25T07:41:03.138Z,60.92
2018-07-25T07:42:55.979Z,60.75
2018-07-25T07:43:55.926Z,61.24
2018-07-25T07:45:48.757Z,59.10
2018-07-25T07:46:48.651Z,58.71
2018-07-25T07:48:41.517Z,58.61
2018-07-25T07:49:41.407Z,58.06
2018-07-25T07:51:34.244Z,57.57
2018-07-25T07:52:34.161Z,57.86
2018-07-25T07:54:26.992Z,57.09
2018-07-25T07:55:26.890Z,56.89
2018-07-25T07:57:19.726Z,56.11
2018-07-25T07:58:19.638Z,55.91
2018-07-25T08:00:12.508Z,55.91
2018-07-25T08:01:12.407Z,56.70
2018-07-25T08:03:05.237Z,57.21
2018-07-25T08:04:05.147Z,56.82
2018-07-25T08:05:58.001Z,57.21
2018-07-25T08:06:57.884Z,56.14
2018-07-25T08:08:50.736Z,56.14
2018-07-25T08:09:50.634Z,56.62
2018-07-25T08:11:43.484Z,56.23
2018-07-25T08:12:43.384Z,55.07
2018-07-25T08:14:36.230Z,54.80
2018-07-25T08:15:36.146Z,53.89
2018-07-25T08:17:29.023Z,54.50
2018-07-25T08:18:28.898Z,55.58
2018-07-25T08:20:21.760Z,54.11
2018-07-25T08:21:21.632Z,54.11
2018-07-25T08:23:14.518Z,54.90
2018-07-25T08:24:14.426Z,53.95
2018-07-25T08:26:07.255Z,53.14
2018-07-25T08:27:07.157Z,53.05
2018-07-25T08:28:59.987Z,53.56
2018-07-25T08:29:59.888Z,53.27
2018-07-25T08:31:52.777Z,53.36
2018-07-25T08:32:52.698Z,53.07
2018-07-25T08:34:46.156Z,52.39
2018-07-25T08:35:45.396Z,53.07
2018-07-25T08:37:38.249Z,53.17
2018-07-25T08:38:38.146Z,52.87
2018-07-25T08:40:30.985Z,53.46
2018-07-25T08:41:30.950Z,53.39
2018-07-25T08:43:24.245Z,53.19
2018-07-25T08:44:24.167Z,52.22
2018-07-25T08:46:17.014Z,52.83
2018-07-25T08:47:16.911Z,52.44
2018-07-25T08:49:09.736Z,52.44
2018-07-25T08:50:09.669Z,52.34
2018-07-25T08:52:02.502Z,51.92
2018-07-25T08:53:02.405Z,51.82
2018-07-25T08:54:55.760Z,52.22
2018-07-25T08:55:55.675Z,52.34
2018-07-25T08:57:48.554Z,52.05
2018-07-25T08:58:48.407Z,53.13
2018-07-25T09:00:41.259Z,50.22
2018-07-25T09:01:41.178Z,48.85
2018-07-25T09:03:33.986Z,49.53
2018-07-25T09:04:33.919Z,49.90
2018-07-25T09:06:26.804Z,50.49
2018-07-25T09:07:26.713Z,50.02
2018-07-25T09:09:19.504Z,49.73
2018-07-25T09:10:19.406Z,48.85
2018-07-25T09:12:12.261Z,49.24
2018-07-25T09:13:12.155Z,48.94
2018-07-25T09:15:05.011Z,48.26
2018-07-25T09:16:04.899Z,47.17
2018-07-25T09:17:57.769Z,48.26
2018-07-25T09:18:57.710Z,47.77
2018-07-25T09:20:50.601Z,47.28
2018-07-25T09:21:50.514Z,47.67
2018-07-25T09:23:43.444Z,47.31
2018-07-25T09:24:43.384Z,47.48
2018-07-25T09:26:36.229Z,47.60
2018-07-25T09:27:36.111Z,46.82
2018-07-25T09:29:29.047Z,47.77
2018-07-25T09:30:28.952Z,48.65
2018-07-25T09:32:21.821Z,49.07
2018-07-25T09:33:21.723Z,48.38
2018-07-25T09:35:14.670Z,48.21
2018-07-25T09:36:14.474Z,47.24
2018-07-25T09:38:07.326Z,46.84
2018-07-25T09:39:07.220Z,47.53
2018-07-25T09:41:00.141Z,47.33
2018-07-25T09:41:59.956Z,47.24
2018-07-25T09:43:52.830Z,46.47
2018-07-25T09:44:52.878Z,45.98
2018-07-25T09:46:45.554Z,45.47
2018-07-25T09:47:45.458Z,45.76
2018-07-25T09:49:38.536Z,45.67
2018-07-25T09:50:38.255Z,45.89
2018-07-25T09:52:31.057Z,45.30
2018-07-25T09:53:30.956Z,46.18
2018-07-25T09:55:23.811Z,45.59
2018-07-25T09:56:23.711Z,45.89
2018-07-25T09:58:16.672Z,46.01
2018-07-25T09:59:16.574Z,45.13
2018-07-25T10:01:09.661Z,45.52
2018-07-25T10:02:09.421Z,44.93
2018-07-25T10:04:02.349Z,45.23
2018-07-25T10:05:02.313Z,45.13
2018-07-25T10:06:55.192Z,45.44
2018-07-25T10:07:55.108Z,44.46
2018-07-25T10:09:48.074Z,43.19
2018-07-25T10:10:47.987Z,43.48
2018-07-25T10:12:40.901Z,43.66
2018-07-25T10:13:40.824Z,43.85
2018-07-25T10:15:33.766Z,43.19
2018-07-25T10:16:33.672Z,43.48
2018-07-25T10:18:26.613Z,42.52
2018-07-25T10:19:26.550Z,42.52
2018-07-25T10:21:19.404Z,43.43
2018-07-25T10:22:19.303Z,41.74
2018-07-25T10:24:12.249Z,42.02
2018-07-25T10:25:12.120Z,41.23
2018-07-25T10:27:05.556Z,40.84
2018-07-25T10:28:04.878Z,41.72
2018-07-25T10:29:57.733Z,42.29
2018-07-25T10:30:57.618Z,42.66
2018-07-25T10:32:50.474Z,43.03
2018-07-25T10:33:50.374Z,44.03
2018-07-25T10:35:43.343Z,43.84
2018-07-25T10:36:43.233Z,43.73
2018-07-25T10:38:36.152Z,43.85
2018-07-25T10:39:36.076Z,44.24
2018-07-25T10:41:28.972Z,43.29
2018-07-25T10:42:28.836Z,42.91
2018-07-25T10:44:21.658Z,42.50
2018-07-25T10:45:21.581Z,42.31
2018-07-25T10:47:14.428Z,41.35
2018-07-25T10:48:14.324Z,41.47
2018-07-25T10:50:07.177Z,40.98
2018-07-25T10:51:07.101Z,42.35
2018-07-25T10:52:59.924Z,41.66
2018-07-25T10:53:59.821Z,42.45
2018-07-25T10:55:52.726Z,41.47
2018-07-25T10:56:52.580Z,41.25
2018-07-25T10:58:45.456Z,41.74
2018-07-25T10:59:45.359Z,41.72
2018-07-25T11:01:38.170Z,41.55
2018-07-25T11:02:38.078Z,42.25
2018-07-25T11:04:30.900Z,41.66
2018-07-25T11:05:30.833Z,41.45
2018-07-25T11:07:23.702Z,41.35
2018-07-25T11:08:23.574Z,42.62
2018-07-25T11:10:16.401Z,42.15
2018-07-25T11:11:16.320Z,41.08
2018-07-25T11:13:09.168Z,41.86
2018-07-25T11:14:09.073Z,41.66
2018-07-25T11:16:01.926Z,41.47
2018-07-25T11:17:01.849Z,41.78
2018-07-25T11:18:55.696Z,41.68
2018-07-25T11:19:54.693Z,41.71
2018-07-25T11:21:47.515Z,42.18
2018-07-25T11:22:47.432Z,42.57
2018-07-25T11:24:40.273Z,42.45
2018-07-25T11:25:40.170Z,42.65
2018-07-25T11:27:34.051Z,42.37
2018-07-25T11:28:33.948Z,40.80
2018-07-25T11:30:26.798Z,42.65
2018-07-25T11:31:26.701Z,41.78
2018-07-25T11:33:19.534Z,41.39
2018-07-25T11:34:19.451Z,41.68
2018-07-25T11:36:12.315Z,41.49
2018-07-25T11:37:12.200Z,41.29
2018-07-25T11:39:05.079Z,40.78
2018-07-25T11:40:04.950Z,41.17
2018-07-25T11:41:57.784Z,40.98
2018-07-25T11:42:57.697Z,41.88
2018-07-25T11:44:50.540Z,40.53
2018-07-25T11:45:50.451Z,40.43
2018-07-25T11:47:43.283Z,40.23
2018-07-25T11:48:43.208Z,39.45
2018-07-25T11:50:36.094Z,40.25
2018-07-25T11:51:35.940Z,40.13
2018-07-25T11:53:28.775Z,39.54
2018-07-25T11:54:28.689Z,40.03
2018-07-25T11:56:21.533Z,41.09
2018-07-25T11:57:21.445Z,40.63
2018-07-25T11:59:14.789Z,39.15
2018-07-25T12:00:14.705Z,40.06
2018-07-25T12:02:07.579Z,39.37
2018-07-25T12:03:07.453Z,39.47
2018-07-25T12:05:00.280Z,38.66
2018-07-25T12:06:00.206Z,39.06
2018-07-25T12:07:53.586Z,39.45
2018-07-25T12:08:53.479Z,39.64
2018-07-25T12:10:46.319Z,38.56
2018-07-25T12:11:46.215Z,38.76
2018-07-25T12:13:39.057Z,38.29
2018-07-25T12:14:38.961Z,38.40
2018-07-25T12:16:31.809Z,38.31
2018-07-25T12:17:31.771Z,37.72
2018-07-25T12:19:24.549Z,38.01
2018-07-25T12:20:24.490Z,37.82
2018-07-25T12:22:17.336Z,37.23
2018-07-25T12:23:17.258Z,37.32
2018-07-25T12:25:10.061Z,37.44
2018-07-25T12:26:09.967Z,37.07
2018-07-25T12:28:02.813Z,36.87
2018-07-25T12:29:02.716Z,36.65
2018-07-25T12:30:55.578Z,37.01
2018-07-25T12:31:55.466Z,37.88
2018-07-25T12:33:50.234Z,38.85
2018-07-25T12:34:50.549Z,38.78
2018-07-25T12:36:43.913Z,38.48
2018-07-25T12:37:43.749Z,37.50
2018-07-25T12:39:36.560Z,38.27
2018-07-25T12:40:36.514Z,38.27
2018-07-25T12:42:29.337Z,38.17
2018-07-25T12:43:29.236Z,38.17
2018-07-25T12:45:25.897Z,37.99
2018-07-25T12:46:25.748Z,38.21
2018-07-25T12:48:19.269Z,37.23
2018-07-25T12:49:19.137Z,37.70
2018-07-25T12:51:11.979Z,37.72
2018-07-25T12:52:11.899Z,37.13
2018-07-25T12:54:04.856Z,36.65
2018-07-25T12:55:04.628Z,36.07
2018-07-25T12:56:57.472Z,36.07
2018-07-25T12:57:57.381Z,36.55
2018-07-25T12:59:50.214Z,36.74
2018-07-25T13:00:50.127Z,37.13
2018-07-25T13:02:42.981Z,37.03
2018-07-25T13:03:42.904Z,37.11
2018-07-25T13:05:35.706Z,36.44
2018-07-25T13:06:35.913Z,36.46
2018-07-25T13:08:28.459Z,36.38
2018-07-25T13:09:28.388Z,36.46
2018-07-25T13:11:21.215Z,36.44
2018-07-25T13:12:21.124Z,36.42
2018-07-25T13:14:13.975Z,36.60
2018-07-25T13:15:13.912Z,37.48
2018-07-25T13:17:06.727Z,37.66
2018-07-25T13:18:06.620Z,37.56
2018-07-25T13:19:59.526Z,37.46
2018-07-25T13:20:59.395Z,37.46
2018-07-25T13:22:52.477Z,37.50
2018-07-25T13:23:52.154Z,38.31
2018-07-25T13:25:44.979Z,35.39
2018-07-25T13:26:44.891Z,33.13
2018-07-25T13:28:37.722Z,33.82
2018-07-25T13:29:37.645Z,35.69
2018-07-25T13:31:30.522Z,33.92
2018-07-25T13:32:30.371Z,34.01
2018-07-25T13:34:23.222Z,33.53
2018-07-25T13:35:23.120Z,33.92
2018-07-25T13:37:15.971Z,33.46
2018-07-25T13:38:15.876Z,33.65
2018-07-25T13:40:08.752Z,32.46
2018-07-25T13:41:08.624Z,32.56
2018-07-25T13:43:01.581Z,32.95
2018-07-25T13:44:01.370Z,32.95
2018-07-25T13:45:54.257Z,32.36
2018-07-25T13:46:54.132Z,33.15
2018-07-25T13:48:46.970Z,32.77
2018-07-25T13:49:46.884Z,32.95
2018-07-25T13:51:39.731Z,33.13
2018-07-25T13:52:39.633Z,33.92
2018-07-25T13:54:32.492Z,33.34
2018-07-25T13:55:32.374Z,32.77
2018-07-25T13:57:25.193Z,32.38
2018-07-25T13:58:25.125Z,31.41
2018-07-25T14:00:17.976Z,31.79
2018-07-25T14:01:17.864Z,33.17
2018-07-25T14:03:10.718Z,33.54
2018-07-25T14:04:10.611Z,34.01
2018-07-25T14:06:03.475Z,34.99
2018-07-25T14:07:03.390Z,35.26
2018-07-25T14:08:56.228Z,35.24
2018-07-25T14:09:56.111Z,35.54
2018-07-25T14:11:49.010Z,35.26
2018-07-25T14:12:48.862Z,35.46
2018-07-25T14:14:42.223Z,35.18
2018-07-25T14:15:42.130Z,34.99
2018-07-25T14:17:34.957Z,35.38
2018-07-25T14:18:34.874Z,34.70
2018-07-25T14:20:27.754Z,33.43
2018-07-25T14:21:27.641Z,33.54
2018-07-25T14:23:20.456Z,33.15
2018-07-25T14:24:20.434Z,33.23
2018-07-25T14:26:13.733Z,34.13
2018-07-25T14:27:13.743Z,33.95
2018-07-25T14:29:06.596Z,33.95
2018-07-25T14:30:06.474Z,33.36
2018-07-25T14:31:59.220Z,33.25
2018-07-25T14:32:59.220Z,33.65
2018-07-25T14:34:52.045Z,33.05
2018-07-25T14:35:52.031Z,33.72
2018-07-25T14:37:44.794Z,33.82
2018-07-25T14:38:44.634Z,33.23
2018-07-25T14:40:37.515Z,33.34
2018-07-25T14:41:37.394Z,32.87
2018-07-25T14:43:30.239Z,32.10
2018-07-25T14:44:30.146Z,32.39
2018-07-25T14:46:23.016Z,32.00
2018-07-25T14:47:22.919Z,31.52
2018-07-25T14:49:15.718Z,31.14
2018-07-25T14:50:15.639Z,30.75
2018-07-25T14:52:08.478Z,31.07
2018-07-25T14:53:08.392Z,30.51
2018-07-25T14:55:01.293Z,29.79
2018-07-25T14:56:01.130Z,30.27
2018-07-25T14:57:53.967Z,31.32
2018-07-25T14:58:53.877Z,31.42
2018-07-25T15:00:46.743Z,31.41
2018-07-25T15:01:46.641Z,31.98
2018-07-25T15:03:39.454Z,32.39
2018-07-25T15:04:39.391Z,31.98
2018-07-25T15:06:32.221Z,31.60
2018-07-25T15:07:32.131Z,31.92
2018-07-25T15:09:25.488Z,30.04
2018-07-25T15:10:25.391Z,30.45
2018-07-25T15:12:18.800Z,30.94
2018-07-25T15:13:18.669Z,30.35
2018-07-25T15:15:11.490Z,30.07
2018-07-25T15:16:11.414Z,30.19
2018-07-25T15:18:04.254Z,29.91
2018-07-25T15:19:04.150Z,30.30
2018-07-25T15:20:57.003Z,30.50
2018-07-25T15:21:56.923Z,31.17
2018-07-25T15:23:49.867Z,30.41
2018-07-25T15:24:49.660Z,30.40
2018-07-25T15:26:42.590Z,31.17
2018-07-25T15:27:42.398Z,31.56
2018-07-25T15:29:35.271Z,31.04
2018-07-25T15:30:35.148Z,30.86
2018-07-25T15:32:28.046Z,31.27
2018-07-25T15:33:27.901Z,30.88
2018-07-25T15:35:20.915Z,30.41
2018-07-25T15:36:20.651Z,29.36
2018-07-25T15:38:13.504Z,29.13
2018-07-25T15:39:13.400Z,29.33
2018-07-25T15:41:06.265Z,29.55
2018-07-25T15:42:06.152Z,29.34
2018-07-25T15:43:59.563Z,29.61
2018-07-25T15:44:58.906Z,29.50
2018-07-25T15:46:51.765Z,30.10
2018-07-25T15:47:51.681Z,29.23
2018-07-25T15:49:44.504Z,28.65
2018-07-25T15:50:44.397Z,28.13
2018-07-25T15:52:37.236Z,28.92
2018-07-25T15:53:37.145Z,28.74
2018-07-25T15:55:30.000Z,28.14
2018-07-25T15:56:29.912Z,28.06
2018-07-25T15:58:23.247Z,26.80
2018-07-25T15:59:23.162Z,26.70
2018-07-25T16:01:16.024Z,27.66
2018-07-25T16:02:15.912Z,27.65
2018-07-25T16:04:08.768Z,26.51
2018-07-25T16:05:08.659Z,26.48
2018-07-25T16:07:01.498Z,26.46
2018-07-25T16:08:01.422Z,26.38
2018-07-25T16:09:54.330Z,26.18
2018-07-25T16:10:54.170Z,25.78
2018-07-25T16:12:47.000Z,25.03
2018-07-25T16:13:46.904Z,25.01
2018-07-25T16:15:39.763Z,24.43
2018-07-25T16:16:39.658Z,24.24
2018-07-25T16:18:32.501Z,23.65
2018-07-25T16:19:32.431Z,24.81
2018-07-25T16:21:25.353Z,24.41
2018-07-25T16:22:25.182Z,23.95
2018-07-25T16:24:18.018Z,23.36
2018-07-25T16:25:17.906Z,23.66
2018-07-25T16:27:10.771Z,23.18
2018-07-25T16:28:10.672Z,22.39
2018-07-25T16:30:03.506Z,25.26
2018-07-25T16:31:03.415Z,25.63
2018-07-25T16:32:56.292Z,24.98
2018-07-25T16:33:56.159Z,24.32
2018-07-25T16:35:48.993Z,24.97
2018-07-25T16:36:48.904Z,24.97
2018-07-25T16:38:42.269Z,24.72
2018-07-25T16:39:42.164Z,23.94
2018-07-25T16:41:35.504Z,24.95
2018-07-25T16:42:35.430Z,24.07
2018-07-25T16:44:28.291Z,24.54
2018-07-25T16:45:28.179Z,25.43
2018-07-25T16:47:21.032Z,25.90
2018-07-25T16:48:20.929Z,25.99
2018-07-25T16:50:13.756Z,26.19
2018-07-25T16:51:13.694Z,25.82
2018-07-25T16:53:06.548Z,26.57
2018-07-25T16:54:06.477Z,26.57
2018-07-25T16:55:59.270Z,26.40
2018-07-25T16:56:59.178Z,26.70
2018-07-25T16:58:52.120Z,27.18
2018-07-25T16:59:51.985Z,26.60
2018-07-25T17:01:44.762Z,26.97
2018-07-25T17:02:44.723Z,26.96
2018-07-25T17:04:37.517Z,27.38
2018-07-25T17:05:37.475Z,27.56
2018-07-25T17:07:30.276Z,27.25
2018-07-25T17:08:30.170Z,26.77
2018-07-25T17:10:23.061Z,27.06
2018-07-25T17:11:22.923Z,27.15
2018-07-25T17:13:15.785Z,27.65
2018-07-25T17:14:15.679Z,27.83
2018-07-25T17:16:08.500Z,28.23
2018-07-25T17:17:08.445Z,28.14
2018-07-25T17:19:01.297Z,27.73
2018-07-25T17:20:01.334Z,27.84
2018-07-25T17:21:54.331Z,27.08
2018-07-25T17:22:54.231Z,27.45
2018-07-25T17:24:47.169Z,26.86
2018-07-25T17:25:47.114Z,27.75
2018-07-25T17:27:40.041Z,27.75
2018-07-25T17:28:39.993Z,28.13
2018-07-25T17:30:32.969Z,28.33
2018-07-25T17:31:32.889Z,27.83
2018-07-25T17:33:25.866Z,28.23
2018-07-25T17:34:25.780Z,27.83
2018-07-25T17:36:18.682Z,27.84
2018-07-25T17:37:18.619Z,27.86
2018-07-25T17:39:11.568Z,27.84
2018-07-25T17:40:11.455Z,27.83
2018-07-25T17:42:04.890Z,27.94
2018-07-25T17:43:04.819Z,27.94
2018-07-25T17:44:57.755Z,27.38
2018-07-25T17:45:57.662Z,27.86
2018-07-25T17:47:50.608Z,27.76
2018-07-25T17:48:50.510Z,28.06
2018-07-25T17:50:43.442Z,28.23
2018-07-25T17:51:43.405Z,28.03
2018-07-25T17:53:36.311Z,28.62
2018-07-25T17:54:36.233Z,28.13
2018-07-25T17:56:29.148Z,29.39
2018-07-25T17:57:29.105Z,29.50
2018-07-25T17:59:22.132Z,29.00
2018-07-25T18:00:21.966Z,28.82
2018-07-25T18:02:14.852Z,28.99
2018-07-25T18:03:14.911Z,29.10
2018-07-25T18:05:07.716Z,29.48
2018-07-25T18:06:07.663Z,29.38
2018-07-25T18:08:01.246Z,29.30
2018-07-25T18:09:00.583Z,29.10
2018-07-25T18:10:53.509Z,29.76
2018-07-25T18:11:53.438Z,31.20
2018-07-25T18:13:46.413Z,33.02
2018-07-25T18:14:46.283Z,33.69
2018-07-25T18:16:39.217Z,34.83
2018-07-25T18:17:39.144Z,35.41
2018-07-25T18:19:32.295Z,35.68
2018-07-25T18:20:32.195Z,36.37
2018-07-25T18:22:25.596Z,36.35
2018-07-25T18:23:25.449Z,37.04
2018-07-25T18:25:18.377Z,38.00
2018-07-25T18:26:18.385Z,38.18
2018-07-25T18:28:11.300Z,38.37
2018-07-25T18:29:11.189Z,38.67
2018-07-25T18:31:04.116Z,39.23
2018-07-25T18:32:04.019Z,39.53